San Jose, Costa Rica
Current Conditions -  °F | °C
As of 8:00 AM on Friday 31 Oct 2014 (Local Time) from MROC Reporting Station
Clear Clear  
Wind Chill: 77°   Ceiling: Unl
Heat Index: 79°   Visibility: 6mi
Dew Point: 63°   Wind: 6mph
Humidity: 61%   Direction: 80°E
Pressure: 30.01"   Gusts: NA
Location:  10°N, 84.22°W
Report Text: MROC 311400Z 08005KT CAVOK 25/17 A3001 NOSIG
Loading
Personal Weather Stations






























Interactive Weather Map New forecast layout! Learn more

10-Day Weather Forecast

Advertisements
Track Severe Weather on mobile